Grande Mariner — WCY6594 — position and weather

sailwx.info

Track history (hours):
 
Tides and Currents Weather Stations Pressure Air Temp Water Temp Dewpoint Dewpoint Depression Visibility Wind Speed Wind Dir Waves Ship Positions

Grande Mariner

Owner: AMERICAN CANADIAN CARIBBEAN LINE INC, WARREN, RI. More information available from US FCC via Universal Licensing System and Coast Guard Vessel Documentation Center.

Last reported at 2016-Jul-27 06:20 UTC. Time now 2016-Jul-30 22:40 UTC.
Position N 45°36' W 086°12'.

Length 56 m; draft 2 m.

Type: Passenger vessel. MMSI: 369024000.

Date/timePositionNaut miles runAvg speedWind from/ knotsBaromVisibWave heightAir tempDewpointWater temp
2016-Jul-27 06:20N 45°36' W 086°12'1810.0
2016-Jul-27 04:32N 45°46' W 085°50'19 9.5
2016-Jul-27 02:33N 45°53' W 085°25'1110.1
2016-Jul-27 01:27N 45°51' W 085°09'910.1
2016-Jul-27 00:33N 45°50' W 084°56'9 0.4
2016-Jul-26 03:06N 45°52' W 084°43'4 5.4
2016-Jul-26 02:19N 45°49' W 084°48'810.5
2016-Jul-26 01:33N 45°50' W 084°59'9 8.5
2016-Jul-26 00:33N 45°45' W 085°10'1010.1
2016-Jul-25 23:33N 45°43' W 085°24'5 5.4
2016-Jul-25 22:34N 45°45' W 085°31'0 0.0
2016-Jul-25 21:33N 45°45' W 085°31'5 5.2
2016-Jul-25 20:33N 45°40' W 085°28'1010.1
2016-Jul-25 19:33N 45°30' W 085°28'1010.4
2016-Jul-25 18:33N 45°21' W 085°36'  
2016-Jul-18 02:33N 45°53' W 085°32'1010.5
2016-Jul-18 01:33N 45°52' W 085°17'1110.6
2016-Jul-18 00:33N 45°51' W 085°02'1110.8
2016-Jul-17 23:33N 45°49' W 084°46'4 2.9
2016-Jul-17 22:09N 45°52' W 084°42'4 0.9
2016-Jul-17 18:17N 45°51' W 084°37'0 0.0
2016-Jul-17 14:29N 45°51' W 084°37'0 0.0
2016-Jul-17 13:29N 45°51' W 084°37'0 0.0
2016-Jul-17 12:23N 45°51' W 084°37'0 0.0
2016-Jul-17 11:23N 45°51' W 084°37'0 0.0
2016-Jul-17 10:32N 45°51' W 084°37'0 0.0
2016-Jul-17 09:29N 45°51' W 084°37'0 0.0
2016-Jul-17 08:29N 45°51' W 084°37'0 0.0
2016-Jul-17 07:29N 45°51' W 084°37'0 0.0
2016-Jul-17 06:29N 45°51' W 084°37'  
Track history (hours):
 
Tides and Currents Weather Stations Pressure Air Temp Water Temp Dewpoint Dewpoint Depression Visibility Wind Speed Wind Dir Waves Ship Positions

Grande Mariner

Owner: AMERICAN CANADIAN CARIBBEAN LINE INC, WARREN, RI. More information available from US FCC via Universal Licensing System and Coast Guard Vessel Documentation Center.

Last reported at 2016-Jul-27 06:20 UTC. Time now 2016-Jul-30 22:40 UTC.
Position N 45°36' W 086°12'.

Length 56 m; draft 2 m.

Type: Passenger vessel. MMSI: 369024000.

Date/timePositionNaut miles runAvg speedWind from/ knotsBaromVisibWave heightAir tempDewpointWater temp
2016-Jul-27 06:20N 45°36' W 086°12'1810.0
2016-Jul-27 04:32N 45°46' W 085°50'19 9.5
2016-Jul-27 02:33N 45°53' W 085°25'1110.1
2016-Jul-27 01:27N 45°51' W 085°09'910.1
2016-Jul-27 00:33N 45°50' W 084°56'9 0.4
2016-Jul-26 03:06N 45°52' W 084°43'4 5.4
2016-Jul-26 02:19N 45°49' W 084°48'810.5
2016-Jul-26 01:33N 45°50' W 084°59'9 8.5
2016-Jul-26 00:33N 45°45' W 085°10'1010.1
2016-Jul-25 23:33N 45°43' W 085°24'5 5.4
2016-Jul-25 22:34N 45°45' W 085°31'0 0.0
2016-Jul-25 21:33N 45°45' W 085°31'5 5.2
2016-Jul-25 20:33N 45°40' W 085°28'1010.1
2016-Jul-25 19:33N 45°30' W 085°28'1010.4
2016-Jul-25 18:33N 45°21' W 085°36'  
2016-Jul-18 02:33N 45°53' W 085°32'1010.5
2016-Jul-18 01:33N 45°52' W 085°17'1110.6
2016-Jul-18 00:33N 45°51' W 085°02'1110.8
2016-Jul-17 23:33N 45°49' W 084°46'4 2.9
2016-Jul-17 22:09N 45°52' W 084°42'4 0.9
2016-Jul-17 18:17N 45°51' W 084°37'0 0.0
2016-Jul-17 14:29N 45°51' W 084°37'0 0.0
2016-Jul-17 13:29N 45°51' W 084°37'0 0.0
2016-Jul-17 12:23N 45°51' W 084°37'0 0.0
2016-Jul-17 11:23N 45°51' W 084°37'0 0.0
2016-Jul-17 10:32N 45°51' W 084°37'0 0.0
2016-Jul-17 09:29N 45°51' W 084°37'0 0.0
2016-Jul-17 08:29N 45°51' W 084°37'0 0.0
2016-Jul-17 07:29N 45°51' W 084°37'0 0.0
2016-Jul-17 06:29N 45°51' W 084°37'  

Dump ship's entire track history